sensor_id;sensor_type;location;lat;lon;timestamp;P1;P2;P0
42002;PMS7003;27693;50.506;30.832;2023-04-12T00:00:26;25.00;24.55;17.82
42002;PMS7003;27693;50.506;30.832;2023-04-12T00:01:29;27.09;23.91;18.09
42002;PMS7003;27693;50.506;30.832;2023-04-12T00:02:32;31.27;26.36;19.00
42002;PMS7003;27693;50.506;30.832;2023-04-12T00:03:37;26.80;24.90;17.50
42002;PMS7003;27693;50.506;30.832;2023-04-12T00:04:41;29.70;24.50;18.10
42002;PMS7003;27693;50.506;30.832;2023-04-12T00:05:44;26.20;23.70;16.80
42002;PMS7003;27693;50.506;30.832;2023-04-12T00:06:48;31.00;25.20;19.70
42002;PMS7003;27693;50.506;30.832;2023-04-12T00:07:52;25.20;23.10;18.10
42002;PMS7003;27693;50.506;30.832;2023-04-12T00:09:01;29.30;24.40;19.30
42002;PMS7003;27693;50.506;30.832;2023-04-12T00:10:01;29.60;26.10;18.30
42002;PMS7003;27693;50.506;30.832;2023-04-12T00:11:04;28.70;22.70;17.10
42002;PMS7003;27693;50.506;30.832;2023-04-12T00:12:07;30.00;26.10;18.40
42002;PMS7003;27693;50.506;30.832;2023-04-12T00:13:10;22.90;21.10;17.00
42002;PMS7003;27693;50.506;30.832;2023-04-12T00:14:12;25.70;22.40;16.10
42002;PMS7003;27693;50.506;30.832;2023-04-12T00:15:15;32.30;28.50;20.30
42002;PMS7003;27693;50.506;30.832;2023-04-12T00:16:17;29.30;24.90;19.60
42002;PMS7003;27693;50.506;30.832;2023-04-12T00:17:19;29.30;26.60;20.00
42002;PMS7003;27693;50.506;30.832;2023-04-12T00:18:22;25.70;22.30;16.90
42002;PMS7003;27693;50.506;30.832;2023-04-12T00:19:27;21.80;19.80;15.70
42002;PMS7003;27693;50.506;30.832;2023-04-12T00:20:31;27.20;23.90;17.50
42002;PMS7003;27693;50.506;30.832;2023-04-12T00:21:33;26.40;22.80;17.20
42002;PMS7003;27693;50.506;30.832;2023-04-12T00:22:36;23.90;21.00;16.10
42002;PMS7003;27693;50.506;30.832;2023-04-12T00:23:38;27.00;24.30;17.00
42002;PMS7003;27693;50.506;30.832;2023-04-12T00:24:41;23.30;19.60;14.40
42002;PMS7003;27693;50.506;30.832;2023-04-12T00:25:44;24.10;21.70;16.40
42002;PMS7003;27693;50.506;30.832;2023-04-12T00:26:47;23.10;22.10;16.10
42002;PMS7003;27693;50.506;30.832;2023-04-12T00:27:49;27.20;24.60;18.30
42002;PMS7003;27693;50.506;30.832;2023-04-12T00:28:52;25.73;21.91;16.45
42002;PMS7003;27693;50.506;30.832;2023-04-12T00:29:54;26.90;23.70;18.40
42002;PMS7003;27693;50.506;30.832;2023-04-12T00:30:57;23.91;21.64;16.55
42002;PMS7003;27693;50.506;30.832;2023-04-12T00:31:59;25.60;21.50;16.10
42002;PMS7003;27693;50.506;30.832;2023-04-12T00:33:04;23.70;20.80;16.40
42002;PMS7003;27693;50.506;30.832;2023-04-12T00:34:06;24.60;23.00;16.90
42002;PMS7003;27693;50.506;30.832;2023-04-12T00:35:09;25.70;22.70;16.70
42002;PMS7003;27693;50.506;30.832;2023-04-12T00:36:11;24.45;20.64;16.27
42002;PMS7003;27693;50.506;30.832;2023-04-12T00:37:16;24.80;21.70;17.00
42002;PMS7003;27693;50.506;30.832;2023-04-12T00:38:18;25.50;19.80;16.20
42002;PMS7003;27693;50.506;30.832;2023-04-12T00:39:20;25.40;22.30;16.90
42002;PMS7003;27693;50.506;30.832;2023-04-12T00:40:23;24.40;22.30;17.00
42002;PMS7003;27693;50.506;30.832;2023-04-12T00:41:26;21.20;19.30;16.90
42002;PMS7003;27693;50.506;30.832;2023-04-12T00:42:29;26.20;21.90;16.60
42002;PMS7003;27693;50.506;30.832;2023-04-12T00:43:33;19.00;16.30;12.80
42002;PMS7003;27693;50.506;30.832;2023-04-12T00:44:36;21.20;19.70;15.70
42002;PMS7003;27693;50.506;30.832;2023-04-12T00:45:38;22.73;19.64;14.91
42002;PMS7003;27693;50.506;30.832;2023-04-12T00:46:41;27.45;22.73;17.00
42002;PMS7003;27693;50.506;30.832;2023-04-12T00:47:44;23.55;21.27;16.18
42002;PMS7003;27693;50.506;30.832;2023-04-12T00:48:47;21.55;19.36;14.27
42002;PMS7003;27693;50.506;30.832;2023-04-12T00:49:50;23.50;20.20;14.70
42002;PMS7003;27693;50.506;30.832;2023-04-12T00:50:53;24.30;20.90;16.80
42002;PMS7003;27693;50.506;30.832;2023-04-12T00:51:57;20.70;17.50;12.80
42002;PMS7003;27693;50.506;30.832;2023-04-12T00:53:05;23.90;21.00;15.90
42002;PMS7003;27693;50.506;30.832;2023-04-12T00:54:07;25.30;21.70;16.10
42002;PMS7003;27693;50.506;30.832;2023-04-12T00:55:09;22.90;21.10;15.80
42002;PMS7003;27693;50.506;30.832;2023-04-12T00:56:12;21.82;19.55;14.27
42002;PMS7003;27693;50.506;30.832;2023-04-12T00:57:15;25.80;20.80;16.10
42002;PMS7003;27693;50.506;30.832;2023-04-12T00:58:17;25.30;21.60;16.50
42002;PMS7003;27693;50.506;30.832;2023-04-12T00:59:20;27.30;23.40;18.50
42002;PMS7003;27693;50.506;30.832;2023-04-12T01:00:22;21.00;18.80;13.20
42002;PMS7003;27693;50.506;30.832;2023-04-12T01:01:25;25.09;21.73;17.27
42002;PMS7003;27693;50.506;30.832;2023-04-12T01:02:29;23.90;21.20;16.60
42002;PMS7003;27693;50.506;30.832;2023-04-12T01:03:32;19.80;18.80;14.50
42002;PMS7003;27693;50.506;30.832;2023-04-12T01:04:35;27.36;23.36;18.45
42002;PMS7003;27693;50.506;30.832;2023-04-12T01:05:42;25.00;21.80;17.50
42002;PMS7003;27693;50.506;30.832;2023-04-12T01:08:12;23.50;19.40;15.30
42002;PMS7003;27693;50.506;30.832;2023-04-12T01:09:49;21.10;20.50;16.30
42002;PMS7003;27693;50.506;30.832;2023-04-12T01:10:56;25.10;20.20;15.40
42002;PMS7003;27693;50.506;30.832;2023-04-12T01:13:44;20.10;17.60;14.20
42002;PMS7003;27693;50.506;30.832;2023-04-12T01:15:06;24.30;21.00;16.10
42002;PMS7003;27693;50.506;30.832;2023-04-12T01:17:28;23.10;21.30;15.50
42002;PMS7003;27693;50.506;30.832;2023-04-12T01:18:36;24.60;21.50;15.30
42002;PMS7003;27693;50.506;30.832;2023-04-12T01:21:19;19.80;19.70;14.90
42002;PMS7003;27693;50.506;30.832;2023-04-12T01:27:45;25.20;21.10;15.20
42002;PMS7003;27693;50.506;30.832;2023-04-12T01:28:53;24.00;20.30;15.40
42002;PMS7003;27693;50.506;30.832;2023-04-12T01:29:57;20.50;18.60;14.30
42002;PMS7003;27693;50.506;30.832;2023-04-12T01:31:02;23.80;21.10;15.60
42002;PMS7003;27693;50.506;30.832;2023-04-12T01:32:07;25.20;21.40;17.30
42002;PMS7003;27693;50.506;30.832;2023-04-12T01:33:13;23.40;17.30;13.90
42002;PMS7003;27693;50.506;30.832;2023-04-12T01:34:19;20.70;18.50;13.90
42002;PMS7003;27693;50.506;30.832;2023-04-12T01:35:25;21.80;17.50;14.00
42002;PMS7003;27693;50.506;30.832;2023-04-12T01:36:30;23.60;20.70;15.10
42002;PMS7003;27693;50.506;30.832;2023-04-12T01:37:37;18.90;17.60;12.90
42002;PMS7003;27693;50.506;30.832;2023-04-12T01:38:40;23.70;18.60;14.30
42002;PMS7003;27693;50.506;30.832;2023-04-12T01:39:43;20.70;17.30;12.90
42002;PMS7003;27693;50.506;30.832;2023-04-12T01:40:45;20.40;18.20;14.40
42002;PMS7003;27693;50.506;30.832;2023-04-12T01:41:52;23.50;19.60;15.30
42002;PMS7003;27693;50.506;30.832;2023-04-12T01:43:04;21.30;17.10;14.20
42002;PMS7003;27693;50.506;30.832;2023-04-12T01:44:07;19.00;17.60;13.80
42002;PMS7003;27693;50.506;30.832;2023-04-12T01:45:09;23.20;20.90;15.60
42002;PMS7003;27693;50.506;30.832;2023-04-12T01:46:14;23.30;18.90;14.60
42002;PMS7003;27693;50.506;30.832;2023-04-12T01:47:19;21.00;18.50;15.00
42002;PMS7003;27693;50.506;30.832;2023-04-12T01:48:21;19.50;18.90;14.60
42002;PMS7003;27693;50.506;30.832;2023-04-12T01:49:24;16.80;14.80;10.10
42002;PMS7003;27693;50.506;30.832;2023-04-12T01:50:50;18.80;18.00;15.10
42002;PMS7003;27693;50.506;30.832;2023-04-12T01:52:11;22.60;19.10;14.10
42002;PMS7003;27693;50.506;30.832;2023-04-12T01:53:21;19.10;17.00;12.20
42002;PMS7003;27693;50.506;30.832;2023-04-12T01:54:27;16.80;15.10;11.70
42002;PMS7003;27693;50.506;30.832;2023-04-12T01:55:33;23.40;17.70;14.30
42002;PMS7003;27693;50.506;30.832;2023-04-12T01:56:40;21.20;18.80;14.50
42002;PMS7003;27693;50.506;30.832;2023-04-12T01:57:45;21.50;18.50;14.10
42002;PMS7003;27693;50.506;30.832;2023-04-12T01:58:50;22.30;19.20;14.20
42002;PMS7003;27693;50.506;30.832;2023-04-12T01:59:54;19.30;17.90;13.90
42002;PMS7003;27693;50.506;30.832;2023-04-12T02:00:59;18.50;17.20;13.70
42002;PMS7003;27693;50.506;30.832;2023-04-12T02:02:04;21.20;17.90;14.60
42002;PMS7003;27693;50.506;30.832;2023-04-12T02:03:09;22.70;19.40;14.50
42002;PMS7003;27693;50.506;30.832;2023-04-12T02:04:14;18.10;18.10;14.00
42002;PMS7003;27693;50.506;30.832;2023-04-12T02:05:18;21.10;19.50;15.30
42002;PMS7003;27693;50.506;30.832;2023-04-12T02:06:22;18.30;15.90;11.80
42002;PMS7003;27693;50.506;30.832;2023-04-12T02:07:27;19.80;17.50;14.10
42002;PMS7003;27693;50.506;30.832;2023-04-12T02:08:30;19.09;16.73;13.27
42002;PMS7003;27693;50.506;30.832;2023-04-12T02:09:36;24.70;20.20;15.40
42002;PMS7003;27693;50.506;30.832;2023-04-12T02:10:39;20.60;16.90;13.10
42002;PMS7003;27693;50.506;30.832;2023-04-12T02:11:44;19.90;18.10;14.70
42002;PMS7003;27693;50.506;30.832;2023-04-12T02:12:51;18.40;17.50;14.60
42002;PMS7003;27693;50.506;30.832;2023-04-12T02:13:55;21.90;20.40;14.50
42002;PMS7003;27693;50.506;30.832;2023-04-12T02:14:58;20.90;19.30;14.80
42002;PMS7003;27693;50.506;30.832;2023-04-12T02:16:00;20.00;19.09;14.55
42002;PMS7003;27693;50.506;30.832;2023-04-12T02:17:05;19.60;17.60;14.20
42002;PMS7003;27693;50.506;30.832;2023-04-12T02:18:10;19.80;17.90;14.60
42002;PMS7003;27693;50.506;30.832;2023-04-12T02:19:15;20.70;19.40;15.20
42002;PMS7003;27693;50.506;30.832;2023-04-12T02:20:18;21.60;16.90;13.20
42002;PMS7003;27693;50.506;30.832;2023-04-12T02:21:22;20.20;17.30;13.50
42002;PMS7003;27693;50.506;30.832;2023-04-12T02:22:25;19.60;18.00;14.00
42002;PMS7003;27693;50.506;30.832;2023-04-12T02:23:28;18.60;16.50;13.80
42002;PMS7003;27693;50.506;30.832;2023-04-12T02:24:31;20.82;18.64;13.64
42002;PMS7003;27693;50.506;30.832;2023-04-12T02:25:34;17.91;17.27;14.91
42002;PMS7003;27693;50.506;30.832;2023-04-12T02:26:37;22.45;18.64;13.18
42002;PMS7003;27693;50.506;30.832;2023-04-12T02:27:45;19.90;17.70;14.30
42002;PMS7003;27693;50.506;30.832;2023-04-12T02:28:48;18.10;15.30;12.30
42002;PMS7003;27693;50.506;30.832;2023-04-12T02:29:51;19.91;18.55;14.00
42002;PMS7003;27693;50.506;30.832;2023-04-12T02:30:53;19.60;18.50;14.70
42002;PMS7003;27693;50.506;30.832;2023-04-12T02:31:57;21.10;18.40;14.60
42002;PMS7003;27693;50.506;30.832;2023-04-12T02:33:01;22.70;19.40;14.80
42002;PMS7003;27693;50.506;30.832;2023-04-12T02:34:08;21.70;17.90;14.70
42002;PMS7003;27693;50.506;30.832;2023-04-12T02:35:13;20.20;17.10;13.90
42002;PMS7003;27693;50.506;30.832;2023-04-12T02:36:20;19.50;17.80;14.10
42002;PMS7003;27693;50.506;30.832;2023-04-12T02:37:24;22.80;17.50;13.80
42002;PMS7003;27693;50.506;30.832;2023-04-12T02:38:28;19.00;16.30;12.90
42002;PMS7003;27693;50.506;30.832;2023-04-12T02:39:33;19.50;17.20;13.20
42002;PMS7003;27693;50.506;30.832;2023-04-12T02:40:39;21.80;16.70;12.90
42002;PMS7003;27693;50.506;30.832;2023-04-12T02:41:44;20.50;17.30;13.20
42002;PMS7003;27693;50.506;30.832;2023-04-12T02:42:47;20.91;18.27;14.45
42002;PMS7003;27693;50.506;30.832;2023-04-12T02:43:49;20.50;18.40;15.50
42002;PMS7003;27693;50.506;30.832;2023-04-12T02:44:52;20.00;17.55;14.00
42002;PMS7003;27693;50.506;30.832;2023-04-12T02:45:55;19.70;17.80;13.50
42002;PMS7003;27693;50.506;30.832;2023-04-12T02:47:00;16.40;13.00;9.60
42002;PMS7003;27693;50.506;30.832;2023-04-12T02:48:04;22.40;18.50;14.10
42002;PMS7003;27693;50.506;30.832;2023-04-12T02:49:07;19.60;17.00;13.30
42002;PMS7003;27693;50.506;30.832;2023-04-12T02:50:13;25.60;20.70;15.50
42002;PMS7003;27693;50.506;30.832;2023-04-12T02:51:18;24.00;19.20;15.00
42002;PMS7003;27693;50.506;30.832;2023-04-12T02:52:22;20.90;17.60;13.40
42002;PMS7003;27693;50.506;30.832;2023-04-12T02:53:33;21.60;19.60;15.50
42002;PMS7003;27693;50.506;30.832;2023-04-12T02:54:39;22.70;18.70;14.30
42002;PMS7003;27693;50.506;30.832;2023-04-12T02:55:44;20.80;18.80;15.10
42002;PMS7003;27693;50.506;30.832;2023-04-12T02:56:47;20.64;19.27;15.00
42002;PMS7003;27693;50.506;30.832;2023-04-12T02:57:51;28.00;19.00;15.30
42002;PMS7003;27693;50.506;30.832;2023-04-12T02:58:54;26.55;22.09;17.00
42002;PMS7003;27693;50.506;30.832;2023-04-12T02:59:58;24.00;21.50;16.90
42002;PMS7003;27693;50.506;30.832;2023-04-12T03:01:12;25.70;21.30;15.90
42002;PMS7003;27693;50.506;30.832;2023-04-12T03:02:17;23.30;20.20;14.60
42002;PMS7003;27693;50.506;30.832;2023-04-12T03:03:20;23.60;20.60;15.50
42002;PMS7003;27693;50.506;30.832;2023-04-12T03:04:24;26.90;21.90;15.50
42002;PMS7003;27693;50.506;30.832;2023-04-12T03:05:29;22.40;20.50;16.00
42002;PMS7003;27693;50.506;30.832;2023-04-12T03:06:33;20.50;17.30;13.00
42002;PMS7003;27693;50.506;30.832;2023-04-12T03:07:36;22.00;20.27;15.27
42002;PMS7003;27693;50.506;30.832;2023-04-12T03:08:40;23.00;20.80;16.10
42002;PMS7003;27693;50.506;30.832;2023-04-12T03:09:42;21.00;18.90;15.20
42002;PMS7003;27693;50.506;30.832;2023-04-12T03:10:45;23.10;20.00;15.30
42002;PMS7003;27693;50.506;30.832;2023-04-12T03:11:48;19.50;17.80;13.90
42002;PMS7003;27693;50.506;30.832;2023-04-12T03:12:50;19.90;19.80;15.70
42002;PMS7003;27693;50.506;30.832;2023-04-12T03:13:54;22.00;19.10;14.00
42002;PMS7003;27693;50.506;30.832;2023-04-12T03:14:57;24.50;20.00;16.20
42002;PMS7003;27693;50.506;30.832;2023-04-12T03:16:02;21.27;18.55;14.36
42002;PMS7003;27693;50.506;30.832;2023-04-12T03:17:08;23.30;19.50;15.80
42002;PMS7003;27693;50.506;30.832;2023-04-12T03:18:11;24.10;22.50;16.70
42002;PMS7003;27693;50.506;30.832;2023-04-12T03:19:18;23.00;20.70;16.20
42002;PMS7003;27693;50.506;30.832;2023-04-12T03:20:23;23.80;22.00;17.00
42002;PMS7003;27693;50.506;30.832;2023-04-12T03:21:27;27.30;20.60;15.60
42002;PMS7003;27693;50.506;30.832;2023-04-12T03:22:31;23.10;19.40;13.70
42002;PMS7003;27693;50.506;30.832;2023-04-12T03:23:34;22.73;20.91;16.18
42002;PMS7003;27693;50.506;30.832;2023-04-12T03:24:39;21.30;17.70;14.00
42002;PMS7003;27693;50.506;30.832;2023-04-12T03:25:45;19.20;18.50;14.20
42002;PMS7003;27693;50.506;30.832;2023-04-12T03:26:56;21.40;18.80;13.40
42002;PMS7003;27693;50.506;30.832;2023-04-12T03:27:59;21.20;19.90;14.90
42002;PMS7003;27693;50.506;30.832;2023-04-12T03:29:04;24.00;22.00;17.30
42002;PMS7003;27693;50.506;30.832;2023-04-12T03:30:10;22.80;20.00;15.30
42002;PMS7003;27693;50.506;30.832;2023-04-12T03:31:14;22.40;19.00;14.50
42002;PMS7003;27693;50.506;30.832;2023-04-12T03:32:20;23.10;20.00;15.50
42002;PMS7003;27693;50.506;30.832;2023-04-12T03:33:22;22.50;18.50;14.50
42002;PMS7003;27693;50.506;30.832;2023-04-12T03:34:26;13.90;12.10;8.50
42002;PMS7003;27693;50.506;30.832;2023-04-12T03:35:35;22.80;21.10;15.60
42002;PMS7003;27693;50.506;30.832;2023-04-12T03:36:39;20.20;19.20;14.50
42002;PMS7003;27693;50.506;30.832;2023-04-12T03:37:44;23.60;20.00;15.50
42002;PMS7003;27693;50.506;30.832;2023-04-12T03:38:47;22.80;20.60;15.50
42002;PMS7003;27693;50.506;30.832;2023-04-12T03:39:50;20.40;16.80;13.90
42002;PMS7003;27693;50.506;30.832;2023-04-12T03:40:54;25.30;20.10;14.20
42002;PMS7003;27693;50.506;30.832;2023-04-12T03:41:58;23.20;19.10;15.10
42002;PMS7003;27693;50.506;30.832;2023-04-12T03:43:02;18.80;17.70;14.50
42002;PMS7003;27693;50.506;30.832;2023-04-12T03:44:06;23.00;19.80;15.70
42002;PMS7003;27693;50.506;30.832;2023-04-12T03:45:10;22.00;20.00;16.20
42002;PMS7003;27693;50.506;30.832;2023-04-12T03:46:15;21.20;18.10;14.50
42002;PMS7003;27693;50.506;30.832;2023-04-12T03:47:20;21.50;19.50;14.30
42002;PMS7003;27693;50.506;30.832;2023-04-12T03:48:23;23.55;19.82;15.18
42002;PMS7003;27693;50.506;30.832;2023-04-12T03:49:26;20.40;18.40;14.00
42002;PMS7003;27693;50.506;30.832;2023-04-12T03:50:28;19.70;16.70;12.40
42002;PMS7003;27693;50.506;30.832;2023-04-12T03:51:32;19.50;17.80;14.10
42002;PMS7003;27693;50.506;30.832;2023-04-12T03:52:38;22.60;17.10;13.50
42002;PMS7003;27693;50.506;30.832;2023-04-12T03:53:41;16.50;15.30;12.00
42002;PMS7003;27693;50.506;30.832;2023-04-12T03:54:45;21.20;17.60;13.40
42002;PMS7003;27693;50.506;30.832;2023-04-12T03:55:49;19.90;18.30;13.90
42002;PMS7003;27693;50.506;30.832;2023-04-12T03:56:52;20.09;17.64;14.36
42002;PMS7003;27693;50.506;30.832;2023-04-12T03:57:57;22.30;18.40;14.70
42002;PMS7003;27693;50.506;30.832;2023-04-12T03:59:01;16.60;15.70;12.60
42002;PMS7003;27693;50.506;30.832;2023-04-12T04:00:06;18.70;17.70;13.90
42002;PMS7003;27693;50.506;30.832;2023-04-12T04:01:11;22.70;17.70;13.90
42002;PMS7003;27693;50.506;30.832;2023-04-12T04:02:15;21.20;16.30;11.70
42002;PMS7003;27693;50.506;30.832;2023-04-12T04:03:20;19.00;16.10;12.80
42002;PMS7003;27693;50.506;30.832;2023-04-12T04:04:26;19.10;15.50;11.90
42002;PMS7003;27693;50.506;30.832;2023-04-12T04:05:31;20.00;15.90;13.40
42002;PMS7003;27693;50.506;30.832;2023-04-12T04:06:35;22.50;18.20;13.10
42002;PMS7003;27693;50.506;30.832;2023-04-12T04:07:39;15.90;13.80;11.00
42002;PMS7003;27693;50.506;30.832;2023-04-12T04:08:42;20.36;16.27;12.36
42002;PMS7003;27693;50.506;30.832;2023-04-12T04:09:46;17.70;15.40;12.20
42002;PMS7003;27693;50.506;30.832;2023-04-12T04:10:49;15.70;14.20;11.00
42002;PMS7003;27693;50.506;30.832;2023-04-12T04:11:52;17.55;14.27;10.64
42002;PMS7003;27693;50.506;30.832;2023-04-12T04:12:55;19.20;16.70;12.60
42002;PMS7003;27693;50.506;30.832;2023-04-12T04:13:58;16.80;13.30;11.30
42002;PMS7003;27693;50.506;30.832;2023-04-12T04:15:01;14.91;13.36;11.09
42002;PMS7003;27693;50.506;30.832;2023-04-12T04:16:07;17.00;14.00;10.10
42002;PMS7003;27693;50.506;30.832;2023-04-12T04:17:13;15.50;14.60;12.30
42002;PMS7003;27693;50.506;30.832;2023-04-12T04:18:16;15.64;12.82;10.27
42002;PMS7003;27693;50.506;30.832;2023-04-12T04:19:19;14.90;11.30;9.10
42002;PMS7003;27693;50.506;30.832;2023-04-12T04:20:22;16.91;14.64;12.00
42002;PMS7003;27693;50.506;30.832;2023-04-12T04:21:25;14.60;13.00;10.90
42002;PMS7003;27693;50.506;30.832;2023-04-12T04:22:32;14.20;13.50;11.20
42002;PMS7003;27693;50.506;30.832;2023-04-12T04:23:36;13.40;12.80;10.50
42002;PMS7003;27693;50.506;30.832;2023-04-12T04:24:39;15.00;13.09;11.00
42002;PMS7003;27693;50.506;30.832;2023-04-12T04:25:42;13.80;13.50;9.60
42002;PMS7003;27693;50.506;30.832;2023-04-12T04:26:47;14.10;12.90;10.40
42002;PMS7003;27693;50.506;30.832;2023-04-12T04:27:52;13.60;10.80;9.80
42002;PMS7003;27693;50.506;30.832;2023-04-12T04:28:56;13.10;10.50;8.50
42002;PMS7003;27693;50.506;30.832;2023-04-12T04:30:02;12.30;11.50;8.90
42002;PMS7003;27693;50.506;30.832;2023-04-12T04:31:07;14.00;12.20;10.70
42002;PMS7003;27693;50.506;30.832;2023-04-12T04:32:13;17.60;14.70;10.20
42002;PMS7003;27693;50.506;30.832;2023-04-12T04:33:17;13.50;11.50;8.70
42002;PMS7003;27693;50.506;30.832;2023-04-12T04:34:21;11.00;9.90;7.20
42002;PMS7003;27693;50.506;30.832;2023-04-12T04:35:25;16.50;14.20;11.50
42002;PMS7003;27693;50.506;30.832;2023-04-12T04:36:34;13.70;13.00;10.20
42002;PMS7003;27693;50.506;30.832;2023-04-12T04:37:39;12.10;11.90;10.00
42002;PMS7003;27693;50.506;30.832;2023-04-12T04:38:43;10.70;8.90;6.90
42002;PMS7003;27693;50.506;30.832;2023-04-12T04:39:47;12.20;12.00;9.20
42002;PMS7003;27693;50.506;30.832;2023-04-12T04:40:50;13.27;12.73;9.91
42002;PMS7003;27693;50.506;30.832;2023-04-12T04:41:57;14.20;12.10;9.20
42002;PMS7003;27693;50.506;30.832;2023-04-12T04:43:05;14.00;11.20;9.30
42002;PMS7003;27693;50.506;30.832;2023-04-12T04:44:10;16.20;14.70;11.70
42002;PMS7003;27693;50.506;30.832;2023-04-12T04:45:15;14.30;13.10;11.20
42002;PMS7003;27693;50.506;30.832;2023-04-12T04:46:19;14.30;11.80;9.20
42002;PMS7003;27693;50.506;30.832;2023-04-12T04:47:23;17.20;13.50;11.80
42002;PMS7003;27693;50.506;30.832;2023-04-12T04:48:25;11.55;10.45;8.82
42002;PMS7003;27693;50.506;30.832;2023-04-12T04:49:28;9.60;8.60;5.90
42002;PMS7003;27693;50.506;30.832;2023-04-12T04:50:32;13.10;11.70;9.70
42002;PMS7003;27693;50.506;30.832;2023-04-12T04:51:36;13.60;12.40;10.50
42002;PMS7003;27693;50.506;30.832;2023-04-12T04:52:39;12.30;11.10;9.30
42002;PMS7003;27693;50.506;30.832;2023-04-12T04:53:43;13.90;11.90;10.00
42002;PMS7003;27693;50.506;30.832;2023-04-12T04:54:47;12.40;11.70;9.40
42002;PMS7003;27693;50.506;30.832;2023-04-12T04:55:56;14.20;11.20;8.60
42002;PMS7003;27693;50.506;30.832;2023-04-12T04:57:03;12.70;12.00;9.00
42002;PMS7003;27693;50.506;30.832;2023-04-12T04:58:08;12.50;11.90;9.70
42002;PMS7003;27693;50.506;30.832;2023-04-12T04:59:13;10.40;9.90;8.20
42002;PMS7003;27693;50.506;30.832;2023-04-12T05:00:16;11.90;10.80;9.00
42002;PMS7003;27693;50.506;30.832;2023-04-12T05:01:21;13.40;12.50;10.20
42002;PMS7003;27693;50.506;30.832;2023-04-12T05:02:25;12.60;11.00;9.00
42002;PMS7003;27693;50.506;30.832;2023-04-12T05:03:28;13.20;10.90;9.30
42002;PMS7003;27693;50.506;30.832;2023-04-12T05:04:33;11.70;11.10;8.80
42002;PMS7003;27693;50.506;30.832;2023-04-12T05:05:36;12.60;12.60;9.50
42002;PMS7003;27693;50.506;30.832;2023-04-12T05:06:41;14.40;12.30;9.30
42002;PMS7003;27693;50.506;30.832;2023-04-12T05:07:45;13.40;12.60;9.90
42002;PMS7003;27693;50.506;30.832;2023-04-12T05:08:48;11.10;9.40;8.00
42002;PMS7003;27693;50.506;30.832;2023-04-12T05:09:51;14.30;14.30;11.30
42002;PMS7003;27693;50.506;30.832;2023-04-12T05:10:55;17.20;14.10;10.00
42002;PMS7003;27693;50.506;30.832;2023-04-12T05:11:59;15.20;12.40;9.90
42002;PMS7003;27693;50.506;30.832;2023-04-12T05:13:02;16.20;12.00;9.40
42002;PMS7003;27693;50.506;30.832;2023-04-12T05:14:05;20.70;17.40;13.90
42002;PMS7003;27693;50.506;30.832;2023-04-12T05:15:12;20.00;17.00;13.80
42002;PMS7003;27693;50.506;30.832;2023-04-12T05:16:14;18.10;16.20;12.40
42002;PMS7003;27693;50.506;30.832;2023-04-12T05:17:18;17.10;15.70;13.50
42002;PMS7003;27693;50.506;30.832;2023-04-12T05:18:20;18.00;14.90;12.60
42002;PMS7003;27693;50.506;30.832;2023-04-12T05:19:24;16.00;13.70;11.70
42002;PMS7003;27693;50.506;30.832;2023-04-12T05:20:26;18.50;14.70;12.20
42002;PMS7003;27693;50.506;30.832;2023-04-12T05:21:28;15.80;13.90;12.00
42002;PMS7003;27693;50.506;30.832;2023-04-12T05:22:30;13.30;13.30;10.90
42002;PMS7003;27693;50.506;30.832;2023-04-12T05:23:40;19.20;17.60;13.80
42002;PMS7003;27693;50.506;30.832;2023-04-12T05:24:51;17.20;14.40;11.90
42002;PMS7003;27693;50.506;30.832;2023-04-12T05:25:51;17.90;14.40;11.40
42002;PMS7003;27693;50.506;30.832;2023-04-12T05:26:54;13.70;12.00;9.70
42002;PMS7003;27693;50.506;30.832;2023-04-12T05:27:57;14.90;13.20;10.90
42002;PMS7003;27693;50.506;30.832;2023-04-12T05:29:01;12.70;11.90;9.70
42002;PMS7003;27693;50.506;30.832;2023-04-12T05:30:04;13.70;11.20;9.30
42002;PMS7003;27693;50.506;30.832;2023-04-12T05:31:09;12.70;11.50;9.10
42002;PMS7003;27693;50.506;30.832;2023-04-12T05:32:12;12.50;10.80;9.10
42002;PMS7003;27693;50.506;30.832;2023-04-12T05:33:16;13.30;13.10;11.10
42002;PMS7003;27693;50.506;30.832;2023-04-12T05:34:20;14.10;12.80;10.80
42002;PMS7003;27693;50.506;30.832;2023-04-12T05:35:27;12.90;11.00;7.70
42002;PMS7003;27693;50.506;30.832;2023-04-12T05:36:32;13.40;11.80;9.00
42002;PMS7003;27693;50.506;30.832;2023-04-12T05:37:36;13.80;11.60;10.00
42002;PMS7003;27693;50.506;30.832;2023-04-12T05:38:40;32.60;30.20;22.80
42002;PMS7003;27693;50.506;30.832;2023-04-12T05:39:46;17.40;15.50;11.30
42002;PMS7003;27693;50.506;30.832;2023-04-12T05:40:51;13.20;12.90;10.10
42002;PMS7003;27693;50.506;30.832;2023-04-12T05:41:56;14.90;12.20;9.60
42002;PMS7003;27693;50.506;30.832;2023-04-12T05:43:00;14.10;11.80;9.30
42002;PMS7003;27693;50.506;30.832;2023-04-12T05:44:04;12.30;11.50;9.00
42002;PMS7003;27693;50.506;30.832;2023-04-12T05:45:08;12.45;11.00;8.91
42002;PMS7003;27693;50.506;30.832;2023-04-12T05:46:13;16.00;10.90;8.90
42002;PMS7003;27693;50.506;30.832;2023-04-12T05:47:16;16.40;15.00;10.50
42002;PMS7003;27693;50.506;30.832;2023-04-12T05:48:19;18.90;17.50;13.60
42002;PMS7003;27693;50.506;30.832;2023-04-12T05:49:27;17.20;13.90;11.00
42002;PMS7003;27693;50.506;30.832;2023-04-12T05:50:35;16.00;11.50;9.20
42002;PMS7003;27693;50.506;30.832;2023-04-12T05:51:39;10.20;9.70;7.70
42002;PMS7003;27693;50.506;30.832;2023-04-12T05:52:45;13.40;12.50;9.20
42002;PMS7003;27693;50.506;30.832;2023-04-12T05:53:49;13.40;11.60;8.70
42002;PMS7003;27693;50.506;30.832;2023-04-12T05:54:53;13.30;11.20;9.50
42002;PMS7003;27693;50.506;30.832;2023-04-12T05:55:56;13.80;12.60;9.60
42002;PMS7003;27693;50.506;30.832;2023-04-12T05:57:00;10.50;10.50;8.40
42002;PMS7003;27693;50.506;30.832;2023-04-12T05:58:02;12.20;12.00;9.50
42002;PMS7003;27693;50.506;30.832;2023-04-12T05:59:06;12.90;11.00;9.60
42002;PMS7003;27693;50.506;30.832;2023-04-12T06:00:11;11.40;10.20;8.50
42002;PMS7003;27693;50.506;30.832;2023-04-12T06:01:16;10.50;8.50;7.70
42002;PMS7003;27693;50.506;30.832;2023-04-12T06:02:20;11.40;10.60;8.40
42002;PMS7003;27693;50.506;30.832;2023-04-12T06:03:25;12.80;11.90;9.70
42002;PMS7003;27693;50.506;30.832;2023-04-12T06:04:32;15.70;12.90;10.00
42002;PMS7003;27693;50.506;30.832;2023-04-12T06:05:37;15.90;12.00;9.80
42002;PMS7003;27693;50.506;30.832;2023-04-12T06:06:40;11.30;9.60;8.70
42002;PMS7003;27693;50.506;30.832;2023-04-12T06:07:44;11.50;9.90;8.80
42002;PMS7003;27693;50.506;30.832;2023-04-12T06:08:50;12.50;10.00;8.70